sensor_id;sensor_type;location;lat;lon;timestamp;P1;durP1;ratioP1;P2;durP2;ratioP2
22068;SDS011;13887;57.196;-2.100;2023-04-06T00:01:44;11.20;;;10.87;;
22068;SDS011;13887;57.196;-2.100;2023-04-06T00:04:15;11.63;;;11.23;;
22068;SDS011;13887;57.196;-2.100;2023-04-06T00:06:43;11.70;;;11.30;;
22068;SDS011;13887;57.196;-2.100;2023-04-06T00:09:10;11.70;;;11.30;;
22068;SDS011;13887;57.196;-2.100;2023-04-06T00:11:38;11.50;;;11.10;;
22068;SDS011;13887;57.196;-2.100;2023-04-06T00:14:06;11.40;;;11.00;;
22068;SDS011;13887;57.196;-2.100;2023-04-06T00:16:33;11.67;;;11.27;;
22068;SDS011;13887;57.196;-2.100;2023-04-06T00:19:01;11.87;;;11.47;;
22068;SDS011;13887;57.196;-2.100;2023-04-06T00:21:28;11.47;;;11.07;;
22068;SDS011;13887;57.196;-2.100;2023-04-06T00:23:55;11.87;;;11.47;;
22068;SDS011;13887;57.196;-2.100;2023-04-06T00:26:25;11.70;;;11.30;;
22068;SDS011;13887;57.196;-2.100;2023-04-06T00:28:54;12.40;;;12.00;;
22068;SDS011;13887;57.196;-2.100;2023-04-06T00:31:21;11.90;;;11.50;;
22068;SDS011;13887;57.196;-2.100;2023-04-06T00:33:49;12.20;;;11.80;;
22068;SDS011;13887;57.196;-2.100;2023-04-06T00:36:17;11.80;;;11.40;;
22068;SDS011;13887;57.196;-2.100;2023-04-06T00:38:44;12.30;;;11.90;;
22068;SDS011;13887;57.196;-2.100;2023-04-06T00:41:12;13.70;;;13.20;;
22068;SDS011;13887;57.196;-2.100;2023-04-06T00:43:39;11.77;;;11.37;;
22068;SDS011;13887;57.196;-2.100;2023-04-06T00:46:07;11.97;;;11.57;;
22068;SDS011;13887;57.196;-2.100;2023-04-06T00:48:34;11.53;;;11.13;;
22068;SDS011;13887;57.196;-2.100;2023-04-06T00:51:02;12.03;;;11.63;;
22068;SDS011;13887;57.196;-2.100;2023-04-06T00:53:29;12.20;;;11.80;;
22068;SDS011;13887;57.196;-2.100;2023-04-06T00:55:59;12.20;;;11.80;;
22068;SDS011;13887;57.196;-2.100;2023-04-06T00:58:28;12.10;;;11.70;;
22068;SDS011;13887;57.196;-2.100;2023-04-06T01:01:03;11.90;;;11.50;;
22068;SDS011;13887;57.196;-2.100;2023-04-06T01:03:32;12.20;;;11.80;;
22068;SDS011;13887;57.196;-2.100;2023-04-06T01:05:59;12.10;;;11.70;;
22068;SDS011;13887;57.196;-2.100;2023-04-06T01:08:34;12.57;;;12.17;;
22068;SDS011;13887;57.196;-2.100;2023-04-06T01:11:21;12.43;;;12.03;;
22068;SDS011;13887;57.196;-2.100;2023-04-06T01:13:50;12.27;;;11.87;;
22068;SDS011;13887;57.196;-2.100;2023-04-06T01:16:53;12.40;;;12.00;;
22068;SDS011;13887;57.196;-2.100;2023-04-06T01:19:26;12.50;;;12.10;;
22068;SDS011;13887;57.196;-2.100;2023-04-06T01:21:54;12.67;;;12.27;;
22068;SDS011;13887;57.196;-2.100;2023-04-06T01:24:31;12.70;;;12.30;;
22068;SDS011;13887;57.196;-2.100;2023-04-06T01:27:11;12.03;;;11.63;;
22068;SDS011;13887;57.196;-2.100;2023-04-06T01:29:48;12.37;;;11.97;;
22068;SDS011;13887;57.196;-2.100;2023-04-06T01:32:37;12.03;;;11.63;;
22068;SDS011;13887;57.196;-2.100;2023-04-06T01:35:07;12.37;;;11.97;;
22068;SDS011;13887;57.196;-2.100;2023-04-06T01:37:43;12.03;;;11.63;;
22068;SDS011;13887;57.196;-2.100;2023-04-06T01:40:15;12.33;;;11.93;;
22068;SDS011;13887;57.196;-2.100;2023-04-06T01:42:48;12.70;;;12.30;;
22068;SDS011;13887;57.196;-2.100;2023-04-06T01:45:25;12.30;;;11.90;;
22068;SDS011;13887;57.196;-2.100;2023-04-06T01:47:57;11.23;;;10.93;;
22068;SDS011;13887;57.196;-2.100;2023-04-06T01:50:28;11.80;;;11.40;;
22068;SDS011;13887;57.196;-2.100;2023-04-06T01:52:55;12.20;;;11.80;;
22068;SDS011;13887;57.196;-2.100;2023-04-06T01:55:24;12.10;;;11.70;;
22068;SDS011;13887;57.196;-2.100;2023-04-06T01:58:15;12.20;;;11.80;;
22068;SDS011;13887;57.196;-2.100;2023-04-06T02:00:42;12.27;;;11.87;;
22068;SDS011;13887;57.196;-2.100;2023-04-06T02:03:10;11.87;;;11.47;;
22068;SDS011;13887;57.196;-2.100;2023-04-06T02:05:38;12.43;;;12.03;;
22068;SDS011;13887;57.196;-2.100;2023-04-06T02:08:17;12.17;;;11.77;;
22068;SDS011;13887;57.196;-2.100;2023-04-06T02:10:45;12.13;;;11.73;;
22068;SDS011;13887;57.196;-2.100;2023-04-06T02:13:22;12.23;;;11.83;;
22068;SDS011;13887;57.196;-2.100;2023-04-06T02:15:52;12.17;;;11.77;;
22068;SDS011;13887;57.196;-2.100;2023-04-06T02:18:19;12.17;;;11.77;;
22068;SDS011;13887;57.196;-2.100;2023-04-06T02:20:48;12.13;;;11.73;;
22068;SDS011;13887;57.196;-2.100;2023-04-06T02:23:16;12.47;;;12.07;;
22068;SDS011;13887;57.196;-2.100;2023-04-06T02:25:43;12.50;;;12.10;;
22068;SDS011;13887;57.196;-2.100;2023-04-06T02:28:11;11.70;;;11.30;;
22068;SDS011;13887;57.196;-2.100;2023-04-06T02:30:38;12.50;;;12.10;;
22068;SDS011;13887;57.196;-2.100;2023-04-06T02:33:06;11.80;;;11.40;;
22068;SDS011;13887;57.196;-2.100;2023-04-06T02:35:41;11.63;;;11.23;;
22068;SDS011;13887;57.196;-2.100;2023-04-06T02:38:12;12.43;;;12.03;;
22068;SDS011;13887;57.196;-2.100;2023-04-06T02:40:40;12.33;;;11.93;;
22068;SDS011;13887;57.196;-2.100;2023-04-06T02:43:27;12.27;;;11.87;;
22068;SDS011;13887;57.196;-2.100;2023-04-06T02:46:03;13.00;;;12.60;;
22068;SDS011;13887;57.196;-2.100;2023-04-06T02:48:34;11.93;;;11.53;;
22068;SDS011;13887;57.196;-2.100;2023-04-06T02:51:04;12.20;;;11.80;;
22068;SDS011;13887;57.196;-2.100;2023-04-06T02:53:31;12.60;;;12.20;;
22068;SDS011;13887;57.196;-2.100;2023-04-06T02:55:59;12.17;;;11.77;;
22068;SDS011;13887;57.196;-2.100;2023-04-06T02:58:39;12.33;;;11.93;;
22068;SDS011;13887;57.196;-2.100;2023-04-06T03:01:07;12.20;;;11.80;;
22068;SDS011;13887;57.196;-2.100;2023-04-06T03:03:38;12.37;;;11.97;;
22068;SDS011;13887;57.196;-2.100;2023-04-06T03:06:11;12.13;;;11.73;;
22068;SDS011;13887;57.196;-2.100;2023-04-06T03:08:39;11.87;;;11.47;;
22068;SDS011;13887;57.196;-2.100;2023-04-06T03:11:06;12.00;;;11.60;;
22068;SDS011;13887;57.196;-2.100;2023-04-06T03:13:37;12.30;;;11.90;;
22068;SDS011;13887;57.196;-2.100;2023-04-06T03:16:05;11.83;;;11.43;;
22068;SDS011;13887;57.196;-2.100;2023-04-06T03:18:34;12.00;;;11.60;;
22068;SDS011;13887;57.196;-2.100;2023-04-06T03:21:01;12.40;;;12.00;;
22068;SDS011;13887;57.196;-2.100;2023-04-06T03:23:42;11.60;;;11.20;;
22068;SDS011;13887;57.196;-2.100;2023-04-06T03:26:10;11.93;;;11.53;;
22068;SDS011;13887;57.196;-2.100;2023-04-06T03:28:39;12.37;;;11.97;;
22068;SDS011;13887;57.196;-2.100;2023-04-06T03:31:07;12.53;;;12.13;;
22068;SDS011;13887;57.196;-2.100;2023-04-06T03:33:40;12.40;;;12.00;;
22068;SDS011;13887;57.196;-2.100;2023-04-06T03:36:16;12.27;;;11.87;;
22068;SDS011;13887;57.196;-2.100;2023-04-06T03:38:43;12.07;;;11.67;;
22068;SDS011;13887;57.196;-2.100;2023-04-06T03:41:12;11.90;;;11.50;;
22068;SDS011;13887;57.196;-2.100;2023-04-06T03:43:44;12.63;;;12.23;;
22068;SDS011;13887;57.196;-2.100;2023-04-06T03:46:12;12.30;;;11.90;;
22068;SDS011;13887;57.196;-2.100;2023-04-06T03:48:39;12.47;;;12.07;;
22068;SDS011;13887;57.196;-2.100;2023-04-06T03:51:09;12.43;;;12.03;;
22068;SDS011;13887;57.196;-2.100;2023-04-06T03:53:37;12.33;;;11.93;;
22068;SDS011;13887;57.196;-2.100;2023-04-06T03:56:07;12.50;;;12.10;;
22068;SDS011;13887;57.196;-2.100;2023-04-06T03:58:35;12.60;;;12.20;;
22068;SDS011;13887;57.196;-2.100;2023-04-06T04:01:02;12.40;;;12.00;;
22068;SDS011;13887;57.196;-2.100;2023-04-06T04:03:30;12.70;;;12.30;;
22068;SDS011;13887;57.196;-2.100;2023-04-06T04:05:58;12.63;;;12.23;;
22068;SDS011;13887;57.196;-2.100;2023-04-06T04:08:26;13.03;;;12.63;;
22068;SDS011;13887;57.196;-2.100;2023-04-06T04:10:56;13.30;;;12.90;;
22068;SDS011;13887;57.196;-2.100;2023-04-06T04:13:23;12.67;;;12.27;;
22068;SDS011;13887;57.196;-2.100;2023-04-06T04:15:51;12.70;;;12.30;;
22068;SDS011;13887;57.196;-2.100;2023-04-06T04:18:19;13.10;;;12.70;;
22068;SDS011;13887;57.196;-2.100;2023-04-06T04:20:46;12.60;;;12.20;;
22068;SDS011;13887;57.196;-2.100;2023-04-06T04:23:14;12.90;;;12.50;;
22068;SDS011;13887;57.196;-2.100;2023-04-06T04:25:42;12.57;;;12.17;;
22068;SDS011;13887;57.196;-2.100;2023-04-06T04:28:10;12.70;;;12.30;;
22068;SDS011;13887;57.196;-2.100;2023-04-06T04:30:39;12.90;;;12.50;;
22068;SDS011;13887;57.196;-2.100;2023-04-06T04:33:09;14.83;;;13.90;;
22068;SDS011;13887;57.196;-2.100;2023-04-06T04:35:37;12.77;;;12.37;;
22068;SDS011;13887;57.196;-2.100;2023-04-06T04:38:06;13.00;;;12.60;;
22068;SDS011;13887;57.196;-2.100;2023-04-06T04:40:39;13.10;;;12.70;;
22068;SDS011;13887;57.196;-2.100;2023-04-06T04:43:08;12.90;;;12.50;;
22068;SDS011;13887;57.196;-2.100;2023-04-06T04:45:35;12.50;;;12.10;;
22068;SDS011;13887;57.196;-2.100;2023-04-06T04:48:26;12.90;;;12.50;;
22068;SDS011;13887;57.196;-2.100;2023-04-06T04:51:00;12.73;;;12.33;;
22068;SDS011;13887;57.196;-2.100;2023-04-06T04:53:38;13.00;;;12.60;;
22068;SDS011;13887;57.196;-2.100;2023-04-06T04:56:15;13.00;;;12.60;;
22068;SDS011;13887;57.196;-2.100;2023-04-06T04:58:44;13.00;;;12.60;;
22068;SDS011;13887;57.196;-2.100;2023-04-06T05:01:12;13.00;;;12.60;;
22068;SDS011;13887;57.196;-2.100;2023-04-06T05:03:40;12.93;;;12.53;;
22068;SDS011;13887;57.196;-2.100;2023-04-06T05:06:12;13.67;;;13.23;;
22068;SDS011;13887;57.196;-2.100;2023-04-06T05:08:41;13.77;;;13.30;;
22068;SDS011;13887;57.196;-2.100;2023-04-06T05:11:09;13.67;;;13.20;;
22068;SDS011;13887;57.196;-2.100;2023-04-06T05:13:42;13.27;;;12.87;;
22068;SDS011;13887;57.196;-2.100;2023-04-06T05:16:20;13.83;;;13.33;;
22068;SDS011;13887;57.196;-2.100;2023-04-06T05:18:49;13.20;;;12.80;;
22068;SDS011;13887;57.196;-2.100;2023-04-06T05:21:17;13.77;;;13.27;;
22068;SDS011;13887;57.196;-2.100;2023-04-06T05:23:55;13.50;;;13.10;;
22068;SDS011;13887;57.196;-2.100;2023-04-06T05:26:23;13.07;;;12.67;;
22068;SDS011;13887;57.196;-2.100;2023-04-06T05:28:55;13.27;;;12.87;;
22068;SDS011;13887;57.196;-2.100;2023-04-06T05:31:23;13.10;;;12.70;;
22068;SDS011;13887;57.196;-2.100;2023-04-06T05:33:51;13.40;;;13.00;;
22068;SDS011;13887;57.196;-2.100;2023-04-06T05:36:34;13.20;;;12.80;;
22068;SDS011;13887;57.196;-2.100;2023-04-06T05:39:08;13.40;;;13.00;;
22068;SDS011;13887;57.196;-2.100;2023-04-06T05:41:49;13.40;;;13.00;;
22068;SDS011;13887;57.196;-2.100;2023-04-06T05:44:26;13.27;;;12.87;;
22068;SDS011;13887;57.196;-2.100;2023-04-06T05:47:02;13.40;;;13.00;;
22068;SDS011;13887;57.196;-2.100;2023-04-06T05:49:29;13.57;;;13.17;;
22068;SDS011;13887;57.196;-2.100;2023-04-06T05:51:57;13.83;;;13.33;;
22068;SDS011;13887;57.196;-2.100;2023-04-06T05:54:28;13.20;;;12.80;;
22068;SDS011;13887;57.196;-2.100;2023-04-06T05:57:01;12.83;;;12.43;;
22068;SDS011;13887;57.196;-2.100;2023-04-06T05:59:32;13.87;;;13.37;;
22068;SDS011;13887;57.196;-2.100;2023-04-06T06:02:00;13.60;;;13.20;;
22068;SDS011;13887;57.196;-2.100;2023-04-06T06:04:34;13.80;;;13.30;;
22068;SDS011;13887;57.196;-2.100;2023-04-06T06:07:02;13.43;;;13.03;;
22068;SDS011;13887;57.196;-2.100;2023-04-06T06:09:42;13.37;;;12.97;;
22068;SDS011;13887;57.196;-2.100;2023-04-06T06:12:20;13.00;;;12.60;;
22068;SDS011;13887;57.196;-2.100;2023-04-06T06:14:48;13.63;;;13.23;;
22068;SDS011;13887;57.196;-2.100;2023-04-06T06:17:17;13.10;;;12.70;;
22068;SDS011;13887;57.196;-2.100;2023-04-06T06:19:47;13.80;;;13.30;;
22068;SDS011;13887;57.196;-2.100;2023-04-06T06:22:15;13.03;;;12.63;;
22068;SDS011;13887;57.196;-2.100;2023-04-06T06:24:45;13.90;;;13.40;;
22068;SDS011;13887;57.196;-2.100;2023-04-06T06:27:13;13.00;;;12.60;;
22068;SDS011;13887;57.196;-2.100;2023-04-06T06:29:41;13.33;;;12.93;;
22068;SDS011;13887;57.196;-2.100;2023-04-06T06:32:09;13.13;;;12.73;;
22068;SDS011;13887;57.196;-2.100;2023-04-06T06:34:38;13.50;;;13.10;;
22068;SDS011;13887;57.196;-2.100;2023-04-06T06:37:07;13.47;;;13.07;;
22068;SDS011;13887;57.196;-2.100;2023-04-06T06:39:36;13.70;;;13.23;;
22068;SDS011;13887;57.196;-2.100;2023-04-06T06:42:04;13.57;;;13.13;;
22068;SDS011;13887;57.196;-2.100;2023-04-06T06:45:01;12.80;;;12.40;;
22068;SDS011;13887;57.196;-2.100;2023-04-06T06:47:29;12.97;;;12.57;;
22068;SDS011;13887;57.196;-2.100;2023-04-06T06:49:58;13.40;;;13.00;;
22068;SDS011;13887;57.196;-2.100;2023-04-06T06:52:25;12.50;;;12.10;;
22068;SDS011;13887;57.196;-2.100;2023-04-06T06:54:52;13.20;;;12.80;;
22068;SDS011;13887;57.196;-2.100;2023-04-06T06:57:23;13.10;;;12.70;;
22068;SDS011;13887;57.196;-2.100;2023-04-06T06:59:51;13.33;;;12.93;;
22068;SDS011;13887;57.196;-2.100;2023-04-06T07:02:20;13.07;;;12.67;;
22068;SDS011;13887;57.196;-2.100;2023-04-06T07:04:48;12.67;;;12.27;;
22068;SDS011;13887;57.196;-2.100;2023-04-06T07:07:16;13.40;;;13.00;;
22068;SDS011;13887;57.196;-2.100;2023-04-06T07:09:44;12.67;;;12.27;;
22068;SDS011;13887;57.196;-2.100;2023-04-06T07:12:11;12.03;;;11.63;;
22068;SDS011;13887;57.196;-2.100;2023-04-06T07:14:38;14.10;;;13.60;;
22068;SDS011;13887;57.196;-2.100;2023-04-06T07:17:06;13.67;;;13.27;;
22068;SDS011;13887;57.196;-2.100;2023-04-06T07:19:33;12.90;;;12.50;;
22068;SDS011;13887;57.196;-2.100;2023-04-06T07:22:01;13.43;;;13.03;;
22068;SDS011;13887;57.196;-2.100;2023-04-06T07:24:30;13.03;;;12.63;;
22068;SDS011;13887;57.196;-2.100;2023-04-06T07:26:58;12.83;;;12.43;;
22068;SDS011;13887;57.196;-2.100;2023-04-06T07:29:29;13.13;;;12.73;;
22068;SDS011;13887;57.196;-2.100;2023-04-06T07:31:57;13.13;;;12.73;;
22068;SDS011;13887;57.196;-2.100;2023-04-06T07:34:25;13.13;;;12.73;;
22068;SDS011;13887;57.196;-2.100;2023-04-06T07:36:53;13.87;;;13.37;;
22068;SDS011;13887;57.196;-2.100;2023-04-06T07:39:20;12.83;;;12.43;;
22068;SDS011;13887;57.196;-2.100;2023-04-06T07:41:50;12.77;;;12.37;;
22068;SDS011;13887;57.196;-2.100;2023-04-06T07:44:18;12.97;;;12.57;;
22068;SDS011;13887;57.196;-2.100;2023-04-06T07:46:45;12.77;;;12.37;;
22068;SDS011;13887;57.196;-2.100;2023-04-06T07:49:13;13.37;;;12.97;;
22068;SDS011;13887;57.196;-2.100;2023-04-06T07:51:42;12.70;;;12.30;;
22068;SDS011;13887;57.196;-2.100;2023-04-06T07:54:09;13.40;;;13.00;;
22068;SDS011;13887;57.196;-2.100;2023-04-06T07:56:36;13.20;;;12.80;;
22068;SDS011;13887;57.196;-2.100;2023-04-06T07:59:04;13.07;;;12.67;;
22068;SDS011;13887;57.196;-2.100;2023-04-06T08:01:31;13.27;;;12.87;;
22068;SDS011;13887;57.196;-2.100;2023-04-06T08:03:58;13.17;;;12.77;;
22068;SDS011;13887;57.196;-2.100;2023-04-06T08:06:29;12.83;;;12.43;;
22068;SDS011;13887;57.196;-2.100;2023-04-06T08:08:57;13.17;;;12.77;;
22068;SDS011;13887;57.196;-2.100;2023-04-06T08:11:24;12.77;;;12.37;;
22068;SDS011;13887;57.196;-2.100;2023-04-06T08:13:53;13.43;;;13.03;;
22068;SDS011;13887;57.196;-2.100;2023-04-06T08:16:25;13.33;;;12.93;;
22068;SDS011;13887;57.196;-2.100;2023-04-06T08:18:52;12.77;;;12.37;;
22068;SDS011;13887;57.196;-2.100;2023-04-06T08:21:19;13.17;;;12.77;;
22068;SDS011;13887;57.196;-2.100;2023-04-06T08:23:47;13.20;;;12.80;;
22068;SDS011;13887;57.196;-2.100;2023-04-06T08:26:16;12.93;;;12.53;;
22068;SDS011;13887;57.196;-2.100;2023-04-06T08:28:43;13.03;;;12.63;;
22068;SDS011;13887;57.196;-2.100;2023-04-06T08:31:12;13.27;;;12.87;;
22068;SDS011;13887;57.196;-2.100;2023-04-06T08:33:39;13.23;;;12.83;;
22068;SDS011;13887;57.196;-2.100;2023-04-06T08:36:10;14.00;;;13.50;;
22068;SDS011;13887;57.196;-2.100;2023-04-06T08:38:39;13.23;;;12.83;;
22068;SDS011;13887;57.196;-2.100;2023-04-06T08:41:08;13.57;;;13.17;;
22068;SDS011;13887;57.196;-2.100;2023-04-06T08:43:49;13.33;;;12.93;;
22068;SDS011;13887;57.196;-2.100;2023-04-06T08:46:20;12.67;;;12.27;;
22068;SDS011;13887;57.196;-2.100;2023-04-06T08:48:48;13.27;;;12.87;;
22068;SDS011;13887;57.196;-2.100;2023-04-06T08:51:18;12.53;;;12.13;;
22068;SDS011;13887;57.196;-2.100;2023-04-06T08:53:46;13.07;;;12.67;;
22068;SDS011;13887;57.196;-2.100;2023-04-06T08:56:15;12.77;;;12.37;;
22068;SDS011;13887;57.196;-2.100;2023-04-06T08:58:43;13.03;;;12.63;;
22068;SDS011;13887;57.196;-2.100;2023-04-06T09:01:11;13.10;;;12.70;;
22068;SDS011;13887;57.196;-2.100;2023-04-06T09:03:42;12.50;;;12.10;;
22068;SDS011;13887;57.196;-2.100;2023-04-06T09:06:10;12.93;;;12.53;;
22068;SDS011;13887;57.196;-2.100;2023-04-06T09:08:40;12.93;;;12.53;;
22068;SDS011;13887;57.196;-2.100;2023-04-06T09:11:08;12.67;;;12.27;;
22068;SDS011;13887;57.196;-2.100;2023-04-06T09:13:49;13.00;;;12.60;;
22068;SDS011;13887;57.196;-2.100;2023-04-06T09:16:18;12.97;;;12.57;;
22068;SDS011;13887;57.196;-2.100;2023-04-06T09:18:46;13.00;;;12.60;;
22068;SDS011;13887;57.196;-2.100;2023-04-06T09:21:16;13.00;;;12.60;;
22068;SDS011;13887;57.196;-2.100;2023-04-06T09:23:45;13.03;;;12.63;;
22068;SDS011;13887;57.196;-2.100;2023-04-06T09:26:18;12.67;;;12.27;;
22068;SDS011;13887;57.196;-2.100;2023-04-06T09:28:47;12.90;;;12.50;;
22068;SDS011;13887;57.196;-2.100;2023-04-06T09:31:24;13.20;;;12.80;;
22068;SDS011;13887;57.196;-2.100;2023-04-06T09:33:53;12.60;;;12.20;;
22068;SDS011;13887;57.196;-2.100;2023-04-06T09:36:32;12.70;;;12.30;;
22068;SDS011;13887;57.196;-2.100;2023-04-06T09:39:04;12.77;;;12.37;;
22068;SDS011;13887;57.196;-2.100;2023-04-06T09:41:34;13.10;;;12.70;;
22068;SDS011;13887;57.196;-2.100;2023-04-06T09:44:06;12.93;;;12.53;;
22068;SDS011;13887;57.196;-2.100;2023-04-06T09:46:38;12.70;;;12.30;;
22068;SDS011;13887;57.196;-2.100;2023-04-06T09:49:28;13.13;;;12.73;;
22068;SDS011;13887;57.196;-2.100;2023-04-06T09:52:04;12.97;;;12.57;;
22068;SDS011;13887;57.196;-2.100;2023-04-06T09:54:34;12.40;;;12.00;;
22068;SDS011;13887;57.196;-2.100;2023-04-06T09:57:13;12.63;;;12.23;;
22068;SDS011;13887;57.196;-2.100;2023-04-06T10:00:13;12.83;;;12.43;;
22068;SDS011;13887;57.196;-2.100;2023-04-06T10:02:45;12.87;;;12.47;;
22068;SDS011;13887;57.196;-2.100;2023-04-06T10:05:37;13.07;;;12.67;;
22068;SDS011;13887;57.196;-2.100;2023-04-06T10:08:13;12.93;;;12.53;;
22068;SDS011;13887;57.196;-2.100;2023-04-06T10:10:41;13.17;;;12.77;;
22068;SDS011;13887;57.196;-2.100;2023-04-06T10:13:09;12.73;;;12.33;;
22068;SDS011;13887;57.196;-2.100;2023-04-06T10:15:38;12.07;;;11.67;;
22068;SDS011;13887;57.196;-2.100;2023-04-06T10:18:08;12.30;;;11.90;;
22068;SDS011;13887;57.196;-2.100;2023-04-06T10:25:55;12.90;;;12.50;;
22068;SDS011;13887;57.196;-2.100;2023-04-06T10:28:24;12.63;;;12.23;;
22068;SDS011;13887;57.196;-2.100;2023-04-06T10:30:59;12.90;;;12.50;;
22068;SDS011;13887;57.196;-2.100;2023-04-06T10:33:28;12.73;;;12.33;;
22068;SDS011;13887;57.196;-2.100;2023-04-06T10:35:55;12.40;;;12.00;;
22068;SDS011;13887;57.196;-2.100;2023-04-06T10:38:36;12.57;;;12.17;;
22068;SDS011;13887;57.196;-2.100;2023-04-06T10:41:08;13.10;;;12.70;;
22068;SDS011;13887;57.196;-2.100;2023-04-06T10:43:40;13.10;;;12.70;;
22068;SDS011;13887;57.196;-2.100;2023-04-06T10:46:09;12.40;;;12.00;;
22068;SDS011;13887;57.196;-2.100;2023-04-06T10:48:41;12.87;;;12.47;;
22068;SDS011;13887;57.196;-2.100;2023-04-06T10:51:10;13.10;;;12.70;;
22068;SDS011;13887;57.196;-2.100;2023-04-06T10:53:39;12.90;;;12.50;;
22068;SDS011;13887;57.196;-2.100;2023-04-06T10:56:11;12.80;;;12.40;;
22068;SDS011;13887;57.196;-2.100;2023-04-06T10:58:50;12.30;;;11.90;;
22068;SDS011;13887;57.196;-2.100;2023-04-06T11:01:20;12.80;;;12.40;;
22068;SDS011;13887;57.196;-2.100;2023-04-06T11:03:52;13.33;;;12.93;;
22068;SDS011;13887;57.196;-2.100;2023-04-06T11:06:21;13.73;;;13.23;;
22068;SDS011;13887;57.196;-2.100;2023-04-06T11:08:52;13.40;;;12.93;;
22068;SDS011;13887;57.196;-2.100;2023-04-06T11:11:20;13.40;;;13.00;;
22068;SDS011;13887;57.196;-2.100;2023-04-06T11:13:50;13.20;;;12.80;;
22068;SDS011;13887;57.196;-2.100;2023-04-06T11:16:20;13.27;;;12.87;;
22068;SDS011;13887;57.196;-2.100;2023-04-06T11:21:31;13.03;;;12.63;;
22068;SDS011;13887;57.196;-2.100;2023-04-06T11:24:06;13.10;;;12.70;;
22068;SDS011;13887;57.196;-2.100;2023-04-06T11:26:41;12.53;;;12.13;;
22068;SDS011;13887;57.196;-2.100;2023-04-06T11:29:15;13.30;;;12.90;;
22068;SDS011;13887;57.196;-2.100;2023-04-06T11:31:46;12.80;;;12.40;;
22068;SDS011;13887;57.196;-2.100;2023-04-06T11:34:18;12.60;;;12.20;;
22068;SDS011;13887;57.196;-2.100;2023-04-06T11:36:47;12.67;;;12.27;;
22068;SDS011;13887;57.196;-2.100;2023-04-06T11:39:22;12.50;;;12.10;;
22068;SDS011;13887;57.196;-2.100;2023-04-06T11:41:51;12.60;;;12.20;;
22068;SDS011;13887;57.196;-2.100;2023-04-06T11:44:34;12.87;;;12.47;;
22068;SDS011;13887;57.196;-2.100;2023-04-06T11:47:03;12.27;;;11.87;;
22068;SDS011;13887;57.196;-2.100;2023-04-06T11:49:33;12.67;;;12.27;;
22068;SDS011;13887;57.196;-2.100;2023-04-06T11:52:13;13.03;;;12.63;;
22068;SDS011;13887;57.196;-2.100;2023-04-06T11:54:44;13.13;;;12.73;;
22068;SDS011;13887;57.196;-2.100;2023-04-06T11:57:14;13.67;;;13.17;;
22068;SDS011;13887;57.196;-2.100;2023-04-06T11:59:43;13.70;;;13.20;;
22068;SDS011;13887;57.196;-2.100;2023-04-06T12:02:10;13.27;;;12.87;;
22068;SDS011;13887;57.196;-2.100;2023-04-06T12:04:38;13.33;;;12.93;;
22068;SDS011;13887;57.196;-2.100;2023-04-06T12:07:06;13.50;;;13.00;;
22068;SDS011;13887;57.196;-2.100;2023-04-06T12:09:33;13.50;;;13.00;;
22068;SDS011;13887;57.196;-2.100;2023-04-06T12:12:02;13.20;;;12.80;;
22068;SDS011;13887;57.196;-2.100;2023-04-06T12:14:30;12.87;;;12.47;;
22068;SDS011;13887;57.196;-2.100;2023-04-06T12:16:57;12.83;;;12.43;;
22068;SDS011;13887;57.196;-2.100;2023-04-06T12:19:25;12.90;;;12.50;;
22068;SDS011;13887;57.196;-2.100;2023-04-06T12:21:55;13.23;;;12.83;;
22068;SDS011;13887;57.196;-2.100;2023-04-06T12:24:24;12.90;;;12.50;;
22068;SDS011;13887;57.196;-2.100;2023-04-06T12:26:51;13.27;;;12.87;;
22068;SDS011;13887;57.196;-2.100;2023-04-06T12:29:35;12.37;;;11.97;;
22068;SDS011;13887;57.196;-2.100;2023-04-06T12:32:02;12.70;;;12.30;;
22068;SDS011;13887;57.196;-2.100;2023-04-06T12:34:30;12.97;;;12.57;;
22068;SDS011;13887;57.196;-2.100;2023-04-06T12:36:57;13.07;;;12.67;;
22068;SDS011;13887;57.196;-2.100;2023-04-06T12:39:27;12.97;;;12.57;;
22068;SDS011;13887;57.196;-2.100;2023-04-06T12:41:55;13.63;;;13.13;;
22068;SDS011;13887;57.196;-2.100;2023-04-06T12:44:23;13.13;;;12.73;;
22068;SDS011;13887;57.196;-2.100;2023-04-06T12:46:52;13.07;;;12.67;;
22068;SDS011;13887;57.196;-2.100;2023-04-06T12:49:23;13.40;;;12.93;;
22068;SDS011;13887;57.196;-2.100;2023-04-06T12:51:50;13.00;;;12.60;;
22068;SDS011;13887;57.196;-2.100;2023-04-06T12:54:17;12.40;;;12.00;;
22068;SDS011;13887;57.196;-2.100;2023-04-06T12:56:44;12.80;;;12.40;;
22068;SDS011;13887;57.196;-2.100;2023-04-06T12:59:12;13.03;;;12.63;;
22068;SDS011;13887;57.196;-2.100;2023-04-06T13:01:40;12.70;;;12.30;;
22068;SDS011;13887;57.196;-2.100;2023-04-06T13:04:08;12.43;;;12.03;;
22068;SDS011;13887;57.196;-2.100;2023-04-06T13:06:35;12.30;;;11.90;;
22068;SDS011;13887;57.196;-2.100;2023-04-06T13:09:02;12.57;;;12.17;;
22068;SDS011;13887;57.196;-2.100;2023-04-06T13:11:30;12.10;;;11.70;;
22068;SDS011;13887;57.196;-2.100;2023-04-06T13:13:58;12.60;;;12.20;;
22068;SDS011;13887;57.196;-2.100;2023-04-06T13:16:25;12.93;;;12.53;;
22068;SDS011;13887;57.196;-2.100;2023-04-06T13:18:52;12.80;;;12.40;;
22068;SDS011;13887;57.196;-2.100;2023-04-06T13:21:19;12.17;;;11.77;;
22068;SDS011;13887;57.196;-2.100;2023-04-06T13:23:47;12.30;;;11.90;;
22068;SDS011;13887;57.196;-2.100;2023-04-06T13:26:14;12.30;;;11.90;;
22068;SDS011;13887;57.196;-2.100;2023-04-06T13:28:43;12.47;;;12.07;;
22068;SDS011;13887;57.196;-2.100;2023-04-06T13:31:10;12.30;;;11.90;;
22068;SDS011;13887;57.196;-2.100;2023-04-06T13:33:38;11.83;;;11.43;;
22068;SDS011;13887;57.196;-2.100;2023-04-06T13:36:07;12.17;;;11.77;;
22068;SDS011;13887;57.196;-2.100;2023-04-06T13:38:35;12.43;;;12.03;;
22068;SDS011;13887;57.196;-2.100;2023-04-06T13:41:05;12.07;;;11.67;;
22068;SDS011;13887;57.196;-2.100;2023-04-06T13:43:33;11.70;;;11.30;;
22068;SDS011;13887;57.196;-2.100;2023-04-06T13:46:00;11.80;;;11.40;;
22068;SDS011;13887;57.196;-2.100;2023-04-06T13:48:28;11.80;;;11.40;;
22068;SDS011;13887;57.196;-2.100;2023-04-06T13:50:55;12.10;;;11.70;;
22068;SDS011;13887;57.196;-2.100;2023-04-06T13:53:22;12.30;;;11.90;;
22068;SDS011;13887;57.196;-2.100;2023-04-06T13:55:53;11.63;;;11.23;;
22068;SDS011;13887;57.196;-2.100;2023-04-06T13:58:21;12.27;;;11.87;;
22068;SDS011;13887;57.196;-2.100;2023-04-06T14:00:48;12.13;;;11.73;;
22068;SDS011;13887;57.196;-2.100;2023-04-06T14:03:15;12.40;;;12.00;;
22068;SDS011;13887;57.196;-2.100;2023-04-06T14:05:48;12.43;;;12.03;;
22068;SDS011;13887;57.196;-2.100;2023-04-06T14:08:15;12.53;;;12.13;;
22068;SDS011;13887;57.196;-2.100;2023-04-06T14:10:42;12.70;;;12.30;;
22068;SDS011;13887;57.196;-2.100;2023-04-06T14:13:09;12.50;;;12.10;;
22068;SDS011;13887;57.196;-2.100;2023-04-06T14:15:37;12.43;;;12.03;;
22068;SDS011;13887;57.196;-2.100;2023-04-06T14:18:04;12.80;;;12.40;;
22068;SDS011;13887;57.196;-2.100;2023-04-06T14:20:32;12.27;;;11.87;;
22068;SDS011;13887;57.196;-2.100;2023-04-06T14:23:02;12.53;;;12.13;;
22068;SDS011;13887;57.196;-2.100;2023-04-06T14:25:30;12.80;;;12.40;;
22068;SDS011;13887;57.196;-2.100;2023-04-06T14:27:58;12.10;;;11.70;;
22068;SDS011;13887;57.196;-2.100;2023-04-06T14:30:26;11.63;;;11.23;;
22068;SDS011;13887;57.196;-2.100;2023-04-06T14:32:56;12.00;;;11.60;;
22068;SDS011;13887;57.196;-2.100;2023-04-06T14:35:24;11.57;;;11.17;;